createdAt,value
2018-05-02T00:00:16.082Z,52.03
2018-05-02T00:02:42.777Z,52.09
2018-05-02T00:05:09.041Z,52.22
2018-05-02T00:07:35.406Z,52.49
2018-05-02T00:10:01.743Z,52.44
2018-05-02T00:12:28.003Z,52.20
2018-05-02T00:14:54.603Z,52.66
2018-05-02T00:17:20.882Z,52.25
2018-05-02T00:19:47.167Z,52.45
2018-05-02T00:22:13.488Z,52.54
2018-05-02T00:24:39.785Z,52.80
2018-05-02T00:27:06.089Z,52.85
2018-05-02T00:29:32.334Z,53.22
2018-05-02T00:31:58.567Z,53.16
2018-05-02T00:34:24.870Z,52.47
2018-05-02T00:36:51.115Z,52.23
2018-05-02T00:39:17.387Z,52.83
2018-05-02T00:41:43.742Z,53.12
2018-05-02T00:44:10.047Z,53.17
2018-05-02T00:46:36.287Z,53.30
2018-05-02T00:49:14.591Z,53.23
2018-05-02T00:51:40.823Z,53.32
2018-05-02T00:54:07.110Z,53.71
2018-05-02T00:56:33.411Z,53.74
2018-05-02T00:58:59.659Z,53.64
2018-05-02T01:01:25.906Z,53.45
2018-05-02T01:03:52.242Z,53.15
2018-05-02T01:06:18.496Z,53.32
2018-05-02T01:08:44.784Z,53.38
2018-05-02T01:11:11.090Z,52.94
2018-05-02T01:13:37.366Z,53.29
2018-05-02T01:16:03.675Z,53.89
2018-05-02T01:18:29.926Z,53.91
2018-05-02T01:20:56.195Z,54.05
2018-05-02T01:23:22.427Z,53.42
2018-05-02T01:25:48.702Z,53.34
2018-05-02T01:28:14.995Z,53.55
2018-05-02T01:30:41.298Z,53.87
2018-05-02T01:33:07.554Z,53.55
2018-05-02T01:35:33.867Z,53.17
2018-05-02T01:38:00.214Z,53.33
2018-05-02T01:40:26.559Z,53.70
2018-05-02T01:42:52.854Z,53.58
2018-05-02T01:45:19.084Z,53.60
2018-05-02T01:47:45.355Z,53.37
2018-05-02T01:50:11.643Z,52.79
2018-05-02T01:52:37.875Z,52.46
2018-05-02T01:55:04.142Z,52.79
2018-05-02T01:57:30.418Z,52.50
2018-05-02T01:59:56.642Z,52.88
2018-05-02T02:02:22.927Z,53.25
2018-05-02T02:04:49.901Z,53.03
2018-05-02T02:07:16.174Z,53.05
2018-05-02T02:09:42.435Z,53.45
2018-05-02T02:12:08.743Z,53.58
2018-05-02T02:14:35.102Z,53.52
2018-05-02T02:17:01.443Z,53.63
2018-05-02T02:19:27.738Z,53.63
2018-05-02T02:21:53.975Z,53.60
2018-05-02T02:24:20.251Z,52.85
2018-05-02T02:26:46.486Z,52.32
2018-05-02T02:29:12.747Z,52.15
2018-05-02T02:31:39.024Z,51.82
2018-05-02T02:34:05.338Z,52.16
2018-05-02T02:36:31.542Z,52.00
2018-05-02T02:38:57.911Z,51.78
2018-05-02T02:41:24.186Z,52.50
2018-05-02T02:43:50.427Z,53.48
2018-05-02T02:46:16.683Z,53.24
2018-05-02T02:48:42.936Z,52.94
2018-05-02T02:51:09.217Z,53.16
2018-05-02T02:53:35.483Z,53.89
2018-05-02T02:56:01.787Z,53.71
2018-05-02T02:58:28.132Z,53.53
2018-05-02T03:00:54.407Z,53.00
2018-05-02T03:03:20.672Z,53.19
2018-05-02T03:05:46.907Z,53.66
2018-05-02T03:08:13.162Z,53.45
2018-05-02T03:10:39.499Z,53.13
2018-05-02T03:13:05.727Z,53.34
2018-05-02T03:15:32.086Z,53.81
2018-05-02T03:17:58.367Z,53.99
2018-05-02T03:20:24.636Z,53.80
2018-05-02T03:22:50.951Z,53.75
2018-05-02T03:25:17.255Z,54.21
2018-05-02T03:27:43.583Z,54.59
2018-05-02T03:30:09.858Z,53.85
2018-05-02T03:32:36.130Z,53.57
2018-05-02T03:35:02.367Z,53.51
2018-05-02T03:37:28.634Z,54.01
2018-05-02T03:39:54.926Z,53.91
2018-05-02T03:42:21.169Z,54.06
2018-05-02T03:44:47.518Z,53.64
2018-05-02T03:47:13.746Z,53.53
2018-05-02T03:49:40.046Z,53.22
2018-05-02T03:52:06.330Z,53.56
2018-05-02T03:54:32.614Z,53.19
2018-05-02T03:56:58.934Z,53.19
2018-05-02T03:59:37.437Z,53.22
2018-05-02T04:02:16.025Z,53.39
2018-05-02T04:04:54.604Z,53.57
2018-05-02T04:07:20.926Z,53.69
2018-05-02T04:09:47.162Z,53.71
2018-05-02T04:12:14.443Z,53.75
2018-05-02T04:14:40.719Z,53.72
2018-05-02T04:17:06.986Z,53.38
2018-05-02T04:19:33.262Z,53.18
2018-05-02T04:21:59.536Z,53.23
2018-05-02T04:24:25.771Z,53.18
2018-05-02T04:26:52.118Z,52.10
2018-05-02T04:29:18.382Z,52.09
2018-05-02T04:31:44.650Z,52.99
2018-05-02T04:34:10.920Z,53.05
2018-05-02T04:36:37.222Z,53.59
2018-05-02T04:39:03.538Z,53.82
2018-05-02T04:41:29.838Z,53.07
2018-05-02T04:43:56.102Z,52.88
2018-05-02T04:46:22.335Z,53.24
2018-05-02T04:48:48.598Z,53.27
2018-05-02T04:51:14.902Z,53.22
2018-05-02T04:53:41.138Z,53.18
2018-05-02T04:56:07.504Z,53.11
2018-05-02T04:58:33.786Z,52.38
2018-05-02T05:01:00.015Z,52.36
2018-05-02T05:03:26.283Z,51.82
2018-05-02T05:05:52.590Z,51.50
2018-05-02T05:08:18.813Z,51.09
2018-05-02T05:10:45.106Z,49.92
2018-05-02T05:13:11.367Z,49.76
2018-05-02T05:15:37.696Z,50.52
2018-05-02T05:18:03.963Z,50.35
2018-05-02T05:20:30.218Z,50.29
2018-05-02T05:22:56.450Z,49.46
2018-05-02T05:25:22.719Z,49.83
2018-05-02T05:27:49.015Z,49.65
2018-05-02T05:30:15.278Z,48.92
2018-05-02T05:32:41.560Z,49.30
2018-05-02T05:35:07.803Z,49.52
2018-05-02T05:37:34.054Z,48.54
2018-05-02T05:40:00.378Z,49.67
2018-05-02T05:42:26.617Z,50.76
2018-05-02T05:44:52.859Z,48.87
2018-05-02T05:47:19.114Z,48.60
2018-05-02T05:49:45.390Z,48.66
2018-05-02T05:52:11.659Z,48.83
2018-05-02T05:54:38.000Z,48.87
2018-05-02T05:57:04.279Z,49.20
2018-05-02T05:59:30.553Z,49.66
2018-05-02T06:01:56.842Z,49.63
2018-05-02T06:04:23.091Z,49.81
2018-05-02T06:06:49.388Z,49.42
2018-05-02T06:09:15.626Z,49.35
2018-05-02T06:11:41.858Z,49.58
2018-05-02T06:14:08.118Z,49.19
2018-05-02T06:16:34.405Z,49.53
2018-05-02T06:19:00.643Z,49.95
2018-05-02T06:21:26.874Z,50.71
2018-05-02T06:23:53.177Z,50.56
2018-05-02T06:26:19.422Z,50.34
2018-05-02T06:28:45.663Z,50.42
2018-05-02T06:31:11.997Z,51.53
2018-05-02T06:33:38.240Z,51.59
2018-05-02T06:36:04.510Z,51.29
2018-05-02T06:38:30.786Z,52.31
2018-05-02T06:40:57.055Z,51.03
2018-05-02T06:43:23.344Z,51.05
2018-05-02T06:45:49.646Z,52.49
2018-05-02T06:48:15.942Z,50.66
2018-05-02T06:50:42.172Z,50.40
2018-05-02T06:53:08.443Z,49.92
2018-05-02T06:55:34.702Z,51.13
2018-05-02T06:58:00.963Z,51.38
2018-05-02T07:00:27.295Z,51.71
2018-05-02T07:02:53.527Z,50.92
2018-05-02T07:05:19.763Z,51.11
2018-05-02T07:07:46.075Z,51.27
2018-05-02T07:10:12.306Z,51.37
2018-05-02T07:12:38.551Z,50.80
2018-05-02T07:15:04.838Z,50.74
2018-05-02T07:17:31.079Z,50.36
2018-05-02T07:19:57.307Z,50.20
2018-05-02T07:22:23.570Z,50.09
2018-05-02T07:24:49.812Z,51.05
2018-05-02T07:27:16.044Z,50.92
2018-05-02T07:29:42.317Z,50.50
2018-05-02T07:32:08.550Z,49.98
2018-05-02T07:34:34.798Z,48.53
2018-05-02T07:37:01.079Z,48.67
2018-05-02T07:39:27.327Z,49.88
2018-05-02T07:41:53.562Z,49.81
2018-05-02T07:44:19.850Z,49.32
2018-05-02T07:46:46.082Z,49.05
2018-05-02T07:49:12.311Z,48.28
2018-05-02T07:51:38.594Z,48.92
2018-05-02T07:54:04.852Z,48.78
2018-05-02T07:56:31.179Z,48.43
2018-05-02T07:58:57.471Z,48.58
2018-05-02T08:01:23.734Z,49.67
2018-05-02T08:03:49.971Z,49.92
2018-05-02T08:06:16.262Z,49.58
2018-05-02T08:08:42.527Z,49.21
2018-05-02T08:11:08.837Z,48.99
2018-05-02T08:13:35.078Z,48.89
2018-05-02T08:16:01.327Z,48.78
2018-05-02T08:18:27.551Z,48.69
2018-05-02T08:20:53.830Z,49.10
2018-05-02T08:23:20.075Z,49.61
2018-05-02T08:25:46.295Z,50.11
2018-05-02T08:28:12.579Z,50.47
2018-05-02T08:30:38.826Z,50.13
2018-05-02T08:33:05.046Z,50.09
2018-05-02T08:35:31.327Z,50.01
2018-05-02T08:37:57.565Z,48.55
2018-05-02T08:40:23.785Z,47.75
2018-05-02T08:42:50.055Z,47.21
2018-05-02T08:45:16.350Z,46.49
2018-05-02T08:47:42.583Z,46.66
2018-05-02T08:50:08.878Z,46.32
2018-05-02T08:52:35.099Z,46.46
2018-05-02T08:55:01.351Z,42.46
2018-05-02T08:57:27.683Z,42.95
2018-05-02T08:59:53.922Z,43.41
2018-05-02T09:02:20.157Z,40.75
2018-05-02T09:04:46.435Z,39.99
2018-05-02T09:07:12.668Z,40.12
2018-05-02T09:09:38.898Z,38.79
2018-05-02T09:12:05.150Z,40.27
2018-05-02T09:14:31.392Z,39.03
2018-05-02T09:16:57.631Z,38.16
2018-05-02T09:19:23.929Z,37.39
2018-05-02T09:21:50.226Z,37.96
2018-05-02T09:24:16.459Z,37.25
2018-05-02T09:26:42.762Z,37.16
2018-05-02T09:29:08.970Z,38.23
2018-05-02T09:31:35.238Z,37.99
2018-05-02T09:34:01.502Z,37.26
2018-05-02T09:36:27.731Z,38.13
2018-05-02T09:38:53.981Z,38.35
2018-05-02T09:41:20.255Z,38.77
2018-05-02T09:43:46.503Z,38.47
2018-05-02T09:46:12.742Z,38.41
2018-05-02T09:48:39.103Z,38.35
2018-05-02T09:51:05.327Z,37.81
2018-05-02T09:53:31.587Z,37.48
2018-05-02T09:55:57.862Z,36.48
2018-05-02T09:58:24.114Z,36.55
2018-05-02T10:00:50.337Z,36.23
2018-05-02T10:03:16.618Z,35.33
2018-05-02T10:05:42.846Z,35.56
2018-05-02T10:08:09.095Z,34.90
2018-05-02T10:10:35.383Z,34.97
2018-05-02T10:13:01.623Z,35.01
2018-05-02T10:15:27.895Z,34.34
2018-05-02T10:17:54.172Z,35.85
2018-05-02T10:20:20.415Z,35.39
2018-05-02T10:22:46.678Z,37.28
2018-05-02T10:25:12.943Z,37.16
2018-05-02T10:27:39.214Z,35.58
2018-05-02T10:30:05.475Z,34.38
2018-05-02T10:32:31.755Z,33.62
2018-05-02T10:34:57.990Z,33.80
2018-05-02T10:37:24.219Z,35.65
2018-05-02T10:39:50.498Z,36.37
2018-05-02T10:42:16.732Z,36.21
2018-05-02T10:44:42.986Z,36.56
2018-05-02T10:47:09.286Z,34.73
2018-05-02T10:49:35.533Z,33.03
2018-05-02T10:52:01.824Z,30.81
2018-05-02T10:54:28.095Z,30.51
2018-05-02T10:56:54.387Z,28.96
2018-05-02T10:59:27.727Z,28.86
2018-05-02T11:01:53.970Z,26.70
2018-05-02T11:04:20.194Z,26.34
2018-05-02T11:06:46.502Z,24.28
2018-05-02T11:09:12.747Z,24.06
2018-05-02T11:11:38.984Z,23.96
2018-05-02T11:14:05.286Z,23.45
2018-05-02T11:16:31.635Z,23.49
2018-05-02T11:18:57.867Z,22.69
2018-05-02T11:21:24.190Z,22.26
2018-05-02T11:23:50.461Z,21.37
2018-05-02T11:26:16.690Z,21.84
2018-05-02T11:28:42.966Z,21.69
2018-05-02T11:31:09.194Z,20.96
2018-05-02T11:33:35.426Z,20.48
2018-05-02T11:36:01.682Z,19.90
2018-05-02T11:38:27.918Z,20.69
2018-05-02T11:40:54.158Z,21.18
2018-05-02T11:43:20.462Z,20.92
2018-05-02T11:45:46.771Z,21.75
2018-05-02T11:48:13.082Z,21.09
2018-05-02T11:50:39.472Z,22.05
2018-05-02T11:53:05.715Z,23.91
2018-05-02T11:55:31.987Z,25.04
2018-05-02T11:57:58.346Z,26.07
2018-05-02T12:00:24.643Z,27.39
2018-05-02T12:02:50.889Z,27.85
2018-05-02T12:05:17.175Z,28.58
2018-05-02T12:07:43.409Z,28.50
2018-05-02T12:10:09.638Z,29.83
2018-05-02T12:12:35.938Z,30.63
2018-05-02T12:15:02.223Z,31.10
2018-05-02T12:17:28.465Z,31.24
2018-05-02T12:19:54.819Z,31.56
2018-05-02T12:22:21.083Z,31.79
2018-05-02T12:24:47.352Z,32.62
2018-05-02T12:27:13.674Z,32.68
2018-05-02T12:29:39.906Z,32.54
2018-05-02T12:32:06.139Z,32.54
2018-05-02T12:34:32.425Z,33.70
2018-05-02T12:36:58.662Z,32.94
2018-05-02T12:39:24.923Z,32.07
2018-05-02T12:41:51.215Z,30.29
2018-05-02T12:44:17.467Z,29.74
2018-05-02T12:46:43.724Z,29.77
2018-05-02T12:49:09.986Z,29.89
2018-05-02T12:51:36.231Z,30.22
2018-05-02T12:54:02.512Z,29.76
2018-05-02T12:56:28.803Z,29.96
2018-05-02T12:58:55.035Z,30.58
2018-05-02T13:01:21.311Z,30.78
2018-05-02T13:03:47.590Z,31.71
2018-05-02T13:06:13.830Z,31.50
2018-05-02T13:08:40.067Z,32.24
2018-05-02T13:11:06.355Z,31.80
2018-05-02T13:13:32.582Z,31.70
2018-05-02T13:15:58.849Z,31.03
2018-05-02T13:18:25.142Z,30.84
2018-05-02T13:20:51.427Z,31.21
2018-05-02T13:23:17.718Z,31.87
2018-05-02T13:25:43.938Z,31.38
2018-05-02T13:28:10.170Z,31.54
2018-05-02T13:30:36.416Z,30.53
2018-05-02T13:33:02.802Z,31.86
2018-05-02T13:35:28.975Z,30.79
2018-05-02T13:37:55.219Z,29.51
2018-05-02T13:40:21.487Z,28.76
2018-05-02T13:42:47.727Z,27.26
2018-05-02T13:45:14.035Z,26.35
2018-05-02T13:47:40.328Z,25.24
2018-05-02T13:50:06.572Z,24.54
2018-05-02T13:52:32.838Z,24.53
2018-05-02T13:54:59.087Z,23.43
2018-05-02T13:57:25.355Z,20.67
2018-05-02T13:59:51.622Z,20.99
2018-05-02T14:02:17.906Z,20.76
2018-05-02T14:04:44.186Z,22.18
2018-05-02T14:07:10.431Z,24.06
2018-05-02T14:09:36.775Z,25.25
2018-05-02T14:12:03.081Z,24.98
2018-05-02T14:14:29.334Z,24.12
2018-05-02T14:16:56.097Z,22.55
2018-05-02T14:19:22.330Z,21.40
2018-05-02T14:21:48.586Z,20.47
2018-05-02T14:24:14.867Z,21.15
2018-05-02T14:26:41.144Z,20.42
2018-05-02T14:29:07.383Z,19.72
2018-05-02T14:31:33.648Z,19.90
2018-05-02T14:33:59.889Z,20.59
2018-05-02T14:36:26.176Z,22.34
2018-05-02T14:38:52.445Z,23.31
2018-05-02T14:41:18.686Z,24.57
2018-05-02T14:43:44.922Z,26.56
2018-05-02T14:46:11.222Z,28.50
2018-05-02T14:48:37.464Z,28.98
2018-05-02T14:51:03.699Z,29.54
2018-05-02T14:53:29.995Z,30.59
2018-05-02T14:55:56.235Z,31.97
2018-05-02T14:58:22.470Z,32.25
2018-05-02T15:00:48.798Z,33.60
2018-05-02T15:03:15.027Z,33.98
2018-05-02T15:05:41.327Z,33.49
2018-05-02T15:08:07.603Z,34.36
2018-05-02T15:10:33.842Z,34.82
2018-05-02T15:13:00.083Z,35.34
2018-05-02T15:15:26.394Z,36.31
2018-05-02T15:17:52.756Z,36.03
2018-05-02T15:20:18.968Z,35.88
2018-05-02T15:22:45.259Z,36.11
2018-05-02T15:25:11.510Z,35.16
2018-05-02T15:27:37.750Z,35.62
2018-05-02T15:30:04.042Z,34.88
2018-05-02T15:32:30.345Z,35.45
2018-05-02T15:34:56.598Z,35.79
2018-05-02T15:37:22.878Z,35.55
2018-05-02T15:39:49.114Z,34.77
2018-05-02T15:42:15.354Z,35.19
2018-05-02T15:44:41.648Z,35.99
2018-05-02T15:47:07.918Z,36.36
2018-05-02T15:49:34.186Z,36.13
2018-05-02T15:52:00.534Z,37.77
2018-05-02T15:54:26.734Z,38.17
2018-05-02T15:56:53.017Z,39.32
2018-05-02T15:59:19.306Z,38.80
2018-05-02T16:01:45.606Z,39.39
2018-05-02T16:04:11.850Z,38.84
2018-05-02T16:06:38.129Z,38.83
2018-05-02T16:09:05.322Z,39.02
2018-05-02T16:11:31.562Z,38.20
2018-05-02T16:13:57.830Z,38.90
2018-05-02T16:16:24.077Z,38.92
2018-05-02T16:18:50.335Z,39.21
2018-05-02T16:21:16.604Z,38.96
2018-05-02T16:23:42.875Z,39.00
2018-05-02T16:26:09.127Z,38.76
2018-05-02T16:28:35.394Z,38.90
2018-05-02T16:31:01.636Z,39.03
2018-05-02T16:33:27.897Z,39.14
2018-05-02T16:35:54.167Z,39.47
2018-05-02T16:38:20.398Z,40.43
2018-05-02T16:40:46.636Z,40.10
2018-05-02T16:43:12.999Z,40.03
2018-05-02T16:45:39.234Z,40.38
2018-05-02T16:48:05.496Z,39.64
2018-05-02T16:50:31.779Z,39.55
2018-05-02T16:52:58.023Z,40.24
2018-05-02T16:55:24.278Z,39.58
2018-05-02T16:57:50.559Z,39.96
2018-05-02T17:00:16.839Z,40.61
2018-05-02T17:02:43.093Z,39.66
2018-05-02T17:05:09.358Z,39.62
2018-05-02T17:07:35.619Z,40.17
2018-05-02T17:10:01.855Z,40.95
2018-05-02T17:12:28.147Z,40.94
2018-05-02T17:14:54.383Z,41.54
2018-05-02T17:17:20.610Z,41.62
2018-05-02T17:19:46.938Z,41.98
2018-05-02T17:22:13.319Z,41.84
2018-05-02T17:24:39.471Z,42.01
2018-05-02T17:27:05.791Z,42.40
2018-05-02T17:29:32.023Z,43.11
2018-05-02T17:31:58.255Z,42.97
2018-05-02T17:34:24.522Z,43.06
2018-05-02T17:36:50.758Z,43.20
2018-05-02T17:39:16.996Z,43.04
2018-05-02T17:41:43.270Z,43.36
2018-05-02T17:44:09.519Z,43.51
2018-05-02T17:46:35.747Z,43.83
2018-05-02T17:49:02.026Z,43.71
2018-05-02T17:51:28.266Z,44.51
2018-05-02T17:53:54.522Z,45.20
2018-05-02T17:56:20.777Z,45.46
2018-05-02T17:58:47.083Z,45.20
2018-05-02T18:01:13.338Z,45.69
2018-05-02T18:03:39.669Z,45.17
2018-05-02T18:06:05.917Z,45.73
2018-05-02T18:08:32.211Z,46.19
2018-05-02T18:10:58.498Z,46.35
2018-05-02T18:13:24.722Z,46.73
2018-05-02T18:15:50.970Z,46.93
2018-05-02T18:18:17.226Z,47.07
2018-05-02T18:20:43.458Z,47.26
2018-05-02T18:23:09.683Z,47.49
2018-05-02T18:25:35.958Z,47.65
2018-05-02T18:28:02.271Z,48.46
2018-05-02T18:30:28.424Z,48.14
2018-05-02T18:32:54.751Z,48.64
2018-05-02T18:35:21.031Z,48.90
2018-05-02T18:37:47.259Z,48.97
2018-05-02T18:40:13.559Z,48.95
2018-05-02T18:42:39.794Z,49.01
2018-05-02T18:45:06.066Z,49.54
2018-05-02T18:47:32.323Z,49.12
2018-05-02T18:49:58.546Z,49.67
2018-05-02T18:52:24.779Z,49.95
2018-05-02T18:54:51.063Z,49.68
2018-05-02T18:57:17.310Z,50.34
2018-05-02T18:59:43.551Z,50.63
2018-05-02T19:02:10.202Z,50.62
2018-05-02T19:04:36.462Z,50.93
2018-05-02T19:07:03.846Z,51.15
2018-05-02T19:09:30.115Z,51.37
2018-05-02T19:11:56.341Z,51.47
2018-05-02T19:14:22.575Z,51.60
2018-05-02T19:16:48.846Z,51.83
2018-05-02T19:19:21.014Z,51.72
2018-05-02T19:21:47.246Z,51.33
2018-05-02T19:24:13.523Z,51.57
2018-05-02T19:26:39.758Z,52.40
2018-05-02T19:29:06.007Z,52.55
2018-05-02T19:31:38.367Z,52.74
2018-05-02T19:34:04.639Z,52.92
2018-05-02T19:36:30.866Z,52.59
2018-05-02T19:38:57.118Z,52.76
2018-05-02T19:41:29.503Z,52.84
2018-05-02T19:44:01.783Z,53.09
2018-05-02T19:46:28.127Z,53.26
2018-05-02T19:48:54.411Z,53.30
2018-05-02T19:51:26.794Z,53.51
2018-05-02T19:53:53.060Z,53.54
2018-05-02T19:56:19.296Z,53.73
2018-05-02T19:58:45.597Z,54.00
2018-05-02T20:01:17.835Z,54.35
2018-05-02T20:03:44.091Z,54.33
2018-05-02T20:06:10.343Z,54.32
2018-05-02T20:08:42.562Z,54.39
2018-05-02T20:11:14.908Z,54.68
2018-05-02T20:13:47.356Z,54.84
2018-05-02T20:16:13.591Z,55.04
2018-05-02T20:18:39.966Z,55.12
2018-05-02T20:21:06.226Z,55.41
2018-05-02T20:23:32.461Z,55.82
2018-05-02T20:25:58.738Z,55.93
2018-05-02T20:28:24.987Z,55.86
2018-05-02T20:30:51.262Z,55.98
2018-05-02T20:33:17.575Z,56.22
2018-05-02T20:35:43.818Z,56.25
2018-05-02T20:38:10.066Z,56.46
2018-05-02T20:40:36.374Z,56.70
2018-05-02T20:43:02.615Z,56.64
2018-05-02T20:45:28.834Z,56.81
2018-05-02T20:47:55.091Z,56.73
2018-05-02T20:50:21.334Z,57.01
2018-05-02T20:52:47.571Z,57.13
2018-05-02T20:55:13.859Z,57.49
2018-05-02T20:57:40.066Z,57.59
2018-05-02T21:00:06.307Z,57.68
2018-05-02T21:02:32.611Z,57.89
2018-05-02T21:04:58.851Z,57.95
2018-05-02T21:07:25.102Z,57.21
2018-05-02T21:09:51.364Z,57.20
2018-05-02T21:12:17.601Z,57.74
2018-05-02T21:14:43.839Z,58.08
2018-05-02T21:17:10.107Z,58.29
2018-05-02T21:19:36.346Z,58.42
2018-05-02T21:22:02.596Z,58.25
2018-05-02T21:24:28.850Z,58.44
2018-05-02T21:26:55.115Z,58.68
2018-05-02T21:29:21.348Z,58.40
2018-05-02T21:31:47.620Z,58.55
2018-05-02T21:34:13.877Z,58.63
2018-05-02T21:36:40.118Z,58.95
2018-05-02T21:39:06.393Z,59.00
2018-05-02T21:41:32.639Z,58.88
2018-05-02T21:43:58.866Z,59.01
2018-05-02T21:46:25.130Z,58.98
2018-05-02T21:48:51.387Z,58.58
2018-05-02T21:51:17.633Z,58.95
2018-05-02T21:53:43.895Z,58.83
2018-05-02T21:56:10.190Z,58.74
2018-05-02T21:58:36.536Z,58.57
2018-05-02T22:01:02.889Z,59.19
2018-05-02T22:03:29.102Z,59.43
2018-05-02T22:05:55.410Z,59.75
2018-05-02T22:08:21.662Z,59.70
2018-05-02T22:10:47.961Z,59.38
2018-05-02T22:13:14.209Z,58.96
2018-05-02T22:15:40.467Z,58.95
2018-05-02T22:18:06.771Z,59.45
2018-05-02T22:20:32.989Z,59.83
2018-05-02T22:22:59.241Z,59.26
2018-05-02T22:25:25.507Z,59.55
2018-05-02T22:27:51.787Z,59.49
2018-05-02T22:30:18.038Z,59.76
2018-05-02T22:32:44.350Z,59.87
2018-05-02T22:35:10.565Z,60.17
2018-05-02T22:37:36.831Z,60.22
2018-05-02T22:40:03.145Z,60.08
2018-05-02T22:42:29.421Z,60.21
2018-05-02T22:44:55.727Z,60.28
2018-05-02T22:47:22.021Z,60.49
2018-05-02T22:49:48.261Z,60.61
2018-05-02T22:52:14.546Z,60.73
2018-05-02T22:54:40.787Z,60.73
2018-05-02T22:57:07.037Z,60.80
2018-05-02T22:59:33.306Z,60.85
2018-05-02T23:01:59.599Z,60.90
2018-05-02T23:04:25.830Z,60.72
2018-05-02T23:06:52.094Z,60.77
2018-05-02T23:09:18.383Z,60.79
2018-05-02T23:11:44.621Z,60.24
2018-05-02T23:14:10.878Z,60.29
2018-05-02T23:16:37.116Z,59.92
2018-05-02T23:19:03.454Z,59.66
2018-05-02T23:21:30.540Z,59.68
2018-05-02T23:23:56.791Z,60.28
2018-05-02T23:26:23.022Z,60.39
2018-05-02T23:28:49.283Z,60.04
2018-05-02T23:31:15.595Z,60.06
2018-05-02T23:33:41.910Z,59.11
2018-05-02T23:36:08.173Z,59.23
2018-05-02T23:38:34.470Z,59.20
2018-05-02T23:41:00.715Z,59.54
2018-05-02T23:43:27.072Z,59.37
2018-05-02T23:45:53.370Z,59.39
2018-05-02T23:48:19.646Z,58.21
2018-05-02T23:50:45.954Z,58.40
2018-05-02T23:53:12.237Z,58.10
2018-05-02T23:55:38.468Z,58.42
2018-05-02T23:58:04.774Z,58.59
